Time;durP1;ratioP1;P1;durP2;ratioP2;P2;SDS_P1;SDS_P2;PMS_P1;PMS_P2;Temp;Humidity;BMP_temperature;BMP_pressure;BME280_temperature;BME280_humidity;BME280_pressure;Samples;Min_cycle;Max_cycle;Signal;HPM_P1;HPM_P2
2022/03/05 00:00:45;;;;;;;13.45;6.00;;;;;;;;;;5063284;28;20037;-76
2022/03/05 00:03:11;;;;;;;10.38;5.10;;;;;;;;;;5045050;28;20116;-76
2022/03/05 00:05:38;;;;;;;10.10;5.22;;;;;;;;;;5045945;28;20523;-76
2022/03/05 00:08:04;;;;;;;13.27;5.35;;;;;;;;;;5063374;28;20088;-76
2022/03/05 00:10:30;;;;;;;13.07;5.63;;;;;;;;;;5044558;28;20068;-76
2022/03/05 00:12:56;;;;;;;11.63;5.03;;;;;;;;;;5062569;28;20397;-76
2022/03/05 00:15:26;;;;;;;12.65;5.57;;;;;;;;;;5062867;28;20044;-76
2022/03/05 00:17:54;;;;;;;12.73;6.07;;;;;;;;;;5044735;28;20044;-76
2022/03/05 00:20:21;;;;;;;12.85;6.00;;;;;;;;;;5047348;28;20040;-77
2022/03/05 00:22:47;;;;;;;11.77;5.65;;;;;;;;;;5044754;28;20095;-77
2022/03/05 00:25:13;;;;;;;11.18;5.30;;;;;;;;;;5062662;28;20040;-77
2022/03/05 00:27:40;;;;;;;17.65;5.43;;;;;;;;;;5045849;28;20037;-77
2022/03/05 00:30:06;;;;;;;11.70;5.97;;;;;;;;;;5044431;28;20568;-77
2022/03/05 00:32:32;;;;;;;11.02;5.20;;;;;;;;;;5062625;28;20511;-77
2022/03/05 00:34:58;;;;;;;11.43;5.38;;;;;;;;;;5045345;28;20041;-77
2022/03/05 00:37:24;;;;;;;14.57;6.85;;;;;;;;;;5060961;28;20040;-77
2022/03/05 00:39:50;;;;;;;13.80;5.90;;;;;;;;;;5063412;28;20500;-77
2022/03/05 00:42:16;;;;;;;14.50;5.50;;;;;;;;;;5061778;28;20083;-77
2022/03/05 00:44:42;;;;;;;11.18;5.07;;;;;;;;;;5044442;28;20048;-77
2022/03/05 00:47:08;;;;;;;14.23;5.68;;;;;;;;;;5062763;28;20407;-77
2022/03/05 00:49:34;;;;;;;15.23;6.47;;;;;;;;;;5043354;28;20044;-77
2022/03/05 00:52:00;;;;;;;15.38;5.75;;;;;;;;;;5062028;28;20032;-77
2022/03/05 00:54:26;;;;;;;13.43;5.13;;;;;;;;;;5043678;28;20041;-77
2022/03/05 00:56:52;;;;;;;12.38;6.25;;;;;;;;;;5060022;28;20041;-77
2022/03/05 00:59:18;;;;;;;16.35;6.57;;;;;;;;;;5061902;28;20131;-77
2022/03/05 01:01:44;;;;;;;15.13;6.20;;;;;;;;;;5043150;28;20404;-77
2022/03/05 01:04:11;;;;;;;15.23;6.03;;;;;;;;;;5045823;28;20037;-77
2022/03/05 01:06:36;;;;;;;11.88;5.25;;;;;;;;;;5061221;28;20040;-77
2022/03/05 01:09:04;;;;;;;14.18;5.90;;;;;;;;;;5043884;28;20047;-78
2022/03/05 01:11:30;;;;;;;13.30;5.40;;;;;;;;;;5062328;28;20141;-77
2022/03/05 01:13:57;;;;;;;14.18;5.72;;;;;;;;;;5061266;28;20420;-77
2022/03/05 01:16:23;;;;;;;10.40;5.38;;;;;;;;;;5043759;28;20033;-78
2022/03/05 01:18:49;;;;;;;11.55;5.70;;;;;;;;;;5045513;28;20128;-78
2022/03/05 01:21:15;;;;;;;15.93;6.32;;;;;;;;;;5044564;28;20509;-78
2022/03/05 01:23:41;;;;;;;15.68;6.70;;;;;;;;;;5044309;28;20041;-78
2022/03/05 01:26:07;;;;;;;14.85;6.50;;;;;;;;;;5045230;28;20040;-78
2022/03/05 01:28:34;;;;;;;12.63;5.53;;;;;;;;;;5066065;28;20052;-78
2022/03/05 01:31:00;;;;;;;13.07;6.00;;;;;;;;;;5071660;28;20048;-78
2022/03/05 01:33:26;;;;;;;9.82;4.95;;;;;;;;;;5054611;28;20041;-77
2022/03/05 01:35:52;;;;;;;16.27;6.40;;;;;;;;;;5071243;28;20390;-78
2022/03/05 01:38:18;;;;;;;14.60;6.43;;;;;;;;;;5071087;28;20485;-78
2022/03/05 01:40:45;;;;;;;14.68;6.53;;;;;;;;;;5054456;28;20044;-78
2022/03/05 01:43:11;;;;;;;17.90;6.85;;;;;;;;;;5054433;28;20040;-78
2022/03/05 01:45:37;;;;;;;13.77;6.03;;;;;;;;;;5054561;28;20075;-78
2022/03/05 01:48:04;;;;;;;15.40;6.72;;;;;;;;;;5054602;28;20059;-78
2022/03/05 01:50:30;;;;;;;11.05;5.57;;;;;;;;;;5054245;28;20060;-78
2022/03/05 01:52:56;;;;;;;17.60;8.07;;;;;;;;;;5054123;28;20086;-78
2022/03/05 01:55:23;;;;;;;14.07;6.32;;;;;;;;;;5070809;28;20040;-77
2022/03/05 01:57:49;;;;;;;14.68;5.97;;;;;;;;;;5070715;28;20055;-77
2022/03/05 02:00:15;;;;;;;12.02;5.47;;;;;;;;;;5053985;28;20037;-77
2022/03/05 02:02:42;;;;;;;11.18;5.18;;;;;;;;;;5053869;28;20079;-77
2022/03/05 02:05:09;;;;;;;15.60;5.80;;;;;;;;;;5054235;28;20044;-78
2022/03/05 02:07:35;;;;;;;15.52;6.05;;;;;;;;;;5070788;28;20080;-77
2022/03/05 02:10:01;;;;;;;18.85;7.60;;;;;;;;;;5070603;28;20064;-77
2022/03/05 02:12:28;;;;;;;15.25;6.60;;;;;;;;;;5070297;28;20458;-77
2022/03/05 02:14:54;;;;;;;15.88;6.55;;;;;;;;;;5053700;28;20055;-77
2022/03/05 02:17:20;;;;;;;15.38;6.32;;;;;;;;;;5070607;28;20546;-76
2022/03/05 02:19:46;;;;;;;18.02;6.60;;;;;;;;;;5070476;28;20037;-77
2022/03/05 02:22:12;;;;;;;12.40;5.90;;;;;;;;;;5053801;28;20041;-77
2022/03/05 02:24:39;;;;;;;16.13;6.45;;;;;;;;;;5053764;28;20557;-78
2022/03/05 02:27:06;;;;;;;16.13;7.50;;;;;;;;;;5053570;28;20131;-77
2022/03/05 02:29:32;;;;;;;13.13;6.25;;;;;;;;;;5054060;28;20040;-77
2022/03/05 02:31:58;;;;;;;14.75;6.82;;;;;;;;;;5053827;28;20083;-77
2022/03/05 02:34:24;;;;;;;15.18;7.10;;;;;;;;;;5070341;28;20084;-78
2022/03/05 02:36:50;;;;;;;13.13;6.82;;;;;;;;;;5070326;28;20170;-77
2022/03/05 02:39:16;;;;;;;17.08;6.38;;;;;;;;;;5070162;28;20041;-77
2022/03/05 02:41:42;;;;;;;11.38;5.38;;;;;;;;;;5070174;28;20044;-77
2022/03/05 02:44:09;;;;;;;15.57;6.18;;;;;;;;;;5070411;28;20094;-77
2022/03/05 02:46:35;;;;;;;16.92;6.57;;;;;;;;;;5053351;28;20037;-77
2022/03/05 02:49:03;;;;;;;14.57;6.90;;;;;;;;;;5070410;28;20562;-78
2022/03/05 02:51:29;;;;;;;13.85;6.38;;;;;;;;;;5053484;28;20098;-77
2022/03/05 02:53:55;;;;;;;15.48;7.10;;;;;;;;;;5053530;28;20047;-77
2022/03/05 02:56:21;;;;;;;14.40;5.82;;;;;;;;;;5069953;28;20048;-78
2022/03/05 02:58:47;;;;;;;14.10;6.25;;;;;;;;;;5053280;28;20378;-77
2022/03/05 03:01:13;;;;;;;14.50;6.18;;;;;;;;;;5053290;28;20063;-77
2022/03/05 03:03:39;;;;;;;17.55;7.07;;;;;;;;;;5069929;28;20124;-78
2022/03/05 03:06:08;;;;;;;20.13;6.43;;;;;;;;;;5070241;28;20488;-77
2022/03/05 03:08:34;;;;;;;15.98;7.22;;;;;;;;;;5053279;28;20107;-77
2022/03/05 03:11:00;;;;;;;14.15;5.55;;;;;;;;;;5069891;28;20210;-76
2022/03/05 03:13:26;;;;;;;13.13;6.93;;;;;;;;;;5053231;28;20140;-77
2022/03/05 03:15:52;;;;;;;14.70;7.22;;;;;;;;;;5069843;28;20443;-78
2022/03/05 03:18:19;;;;;;;13.75;6.15;;;;;;;;;;5070108;28;20086;-78
2022/03/05 03:20:45;;;;;;;12.93;5.97;;;;;;;;;;5053273;28;20032;-78
2022/03/05 03:23:11;;;;;;;15.10;7.03;;;;;;;;;;5069966;28;20501;-78
2022/03/05 03:25:39;;;;;;;11.98;5.60;;;;;;;;;;5073713;28;20396;-77
2022/03/05 03:28:05;;;;;;;11.25;6.45;;;;;;;;;;5057013;28;20440;-78
2022/03/05 03:30:31;;;;;;;14.95;6.22;;;;;;;;;;5057017;28;20041;-77
2022/03/05 03:32:57;;;;;;;12.43;6.45;;;;;;;;;;5057084;28;20041;-77
2022/03/05 03:35:23;;;;;;;16.67;7.18;;;;;;;;;;5056818;28;20067;-76
2022/03/05 03:37:50;;;;;;;15.20;5.75;;;;;;;;;;5056721;28;20036;-77
2022/03/05 03:40:16;;;;;;;14.50;6.57;;;;;;;;;;5056603;28;20036;-77
2022/03/05 03:42:43;;;;;;;16.05;6.18;;;;;;;;;;5057045;28;20036;-77
2022/03/05 03:45:10;;;;;;;13.95;6.63;;;;;;;;;;5056280;28;20131;-77
2022/03/05 03:47:36;;;;;;;16.70;6.60;;;;;;;;;;5056728;28;20095;-77
2022/03/05 03:50:05;;;;;;;14.48;5.97;;;;;;;;;;5073620;28;20062;-77
2022/03/05 03:52:31;;;;;;;16.00;5.70;;;;;;;;;;5056802;28;20163;-77
2022/03/05 03:54:57;;;;;;;14.15;6.18;;;;;;;;;;5073232;28;20048;-77
2022/03/05 03:57:23;;;;;;;14.52;5.47;;;;;;;;;;5073418;28;20396;-77
2022/03/05 03:59:51;;;;;;;13.85;6.00;;;;;;;;;;5073438;28;20044;-77
2022/03/05 04:02:19;;;;;;;15.82;7.03;;;;;;;;;;5073170;28;20047;-77
2022/03/05 04:04:45;;;;;;;14.20;5.82;;;;;;;;;;5056394;28;20078;-77
2022/03/05 04:09:55;;;;;;;14.38;6.18;;;;;;;;;;5072800;28;20465;-77
2022/03/05 04:12:22;;;;;;;10.23;5.43;;;;;;;;;;5056382;28;20051;-77
2022/03/05 04:14:48;;;;;;;10.82;5.38;;;;;;;;;;5056117;28;20456;-77
2022/03/05 04:17:15;;;;;;;12.73;6.15;;;;;;;;;;5056396;28;20083;-77
2022/03/05 04:19:41;;;;;;;8.60;5.15;;;;;;;;;;5056089;28;20094;-77
2022/03/05 04:22:07;;;;;;;10.50;4.28;;;;;;;;;;5056490;28;20040;-77
2022/03/05 04:24:33;;;;;;;14.43;6.20;;;;;;;;;;5055994;28;20043;-78
2022/03/05 04:26:59;;;;;;;15.07;6.85;;;;;;;;;;5072645;28;20032;-76
2022/03/05 04:29:26;;;;;;;16.50;5.97;;;;;;;;;;5055886;28;20047;-77
2022/03/05 04:31:53;;;;;;;14.40;6.65;;;;;;;;;;5072743;28;20480;-77
2022/03/05 04:34:19;;;;;;;13.27;7.15;;;;;;;;;;5055672;28;20124;-78
2022/03/05 04:36:45;;;;;;;16.00;6.22;;;;;;;;;;5072648;28;20033;-77
2022/03/05 04:39:11;;;;;;;12.85;5.90;;;;;;;;;;5072574;28;20066;-76
2022/03/05 04:41:37;;;;;;;11.57;5.15;;;;;;;;;;5055545;28;20041;-78
2022/03/05 04:44:03;;;;;;;15.27;6.75;;;;;;;;;;5056174;28;20135;-77
2022/03/05 04:46:29;;;;;;;12.35;5.43;;;;;;;;;;5055927;28;20041;-77
2022/03/05 04:48:55;;;;;;;11.80;5.18;;;;;;;;;;5072512;28;20477;-77
2022/03/05 04:51:21;;;;;;;10.30;5.28;;;;;;;;;;5055601;28;20059;-77
2022/03/05 04:53:47;;;;;;;10.77;5.15;;;;;;;;;;5055745;28;20083;-76
2022/03/05 04:56:13;;;;;;;14.13;6.63;;;;;;;;;;5055544;28;20045;-77
2022/03/05 04:58:40;;;;;;;12.70;5.65;;;;;;;;;;5055195;28;20039;-76
2022/03/05 05:01:06;;;;;;;14.48;5.90;;;;;;;;;;5055487;28;20028;-76
2022/03/05 05:03:33;;;;;;;14.45;6.00;;;;;;;;;;5071967;28;20047;-76
2022/03/05 05:05:59;;;;;;;16.75;7.10;;;;;;;;;;5071824;28;20091;-77
2022/03/05 05:08:25;;;;;;;13.30;5.85;;;;;;;;;;5055220;28;20083;-77
2022/03/05 05:10:51;;;;;;;18.30;6.60;;;;;;;;;;5054813;28;20056;-77
2022/03/05 05:13:17;;;;;;;15.00;5.78;;;;;;;;;;5055327;28;20040;-77
2022/03/05 05:15:45;;;;;;;14.43;6.38;;;;;;;;;;5071621;28;20040;-77
2022/03/05 05:18:11;;;;;;;13.82;6.43;;;;;;;;;;5054899;28;20124;-77
2022/03/05 05:20:37;;;;;;;11.32;5.60;;;;;;;;;;5071673;28;20458;-77
2022/03/05 05:23:03;;;;;;;13.25;6.15;;;;;;;;;;5054788;28;20036;-78
2022/03/05 05:25:29;;;;;;;16.02;6.53;;;;;;;;;;5071437;28;20047;-77
2022/03/05 05:27:55;;;;;;;12.27;5.72;;;;;;;;;;5071759;28;20435;-77
2022/03/05 05:30:21;;;;;;;13.25;5.97;;;;;;;;;;5054940;28;20489;-77
2022/03/05 05:32:47;;;;;;;15.93;5.78;;;;;;;;;;5054942;28;20140;-77
2022/03/05 05:35:14;;;;;;;13.13;6.05;;;;;;;;;;5071085;28;20075;-77
2022/03/05 05:37:40;;;;;;;13.18;6.07;;;;;;;;;;5054727;28;20032;-77
2022/03/05 05:40:07;;;;;;;13.73;6.30;;;;;;;;;;5054833;28;20378;-78
2022/03/05 05:42:33;;;;;;;15.73;5.68;;;;;;;;;;5054427;28;20267;-77
2022/03/05 05:44:59;;;;;;;18.02;8.50;;;;;;;;;;5054188;28;20125;-77
2022/03/05 05:47:24;;;;;;;41.15;19.02;;;;;;;;;;5054173;28;20044;-77
2022/03/05 05:49:51;;;;;;;51.28;22.83;;;;;;;;;;5054230;28;20040;-77
2022/03/05 05:52:18;;;;;;;139.32;44.85;;;;;;;;;;5054232;28;20123;-77
2022/03/05 05:54:44;;;;;;;158.52;44.50;;;;;;;;;;5070739;28;20455;-77
2022/03/05 05:57:10;;;;;;;143.95;42.70;;;;;;;;;;5071046;28;20036;-77
2022/03/05 05:59:36;;;;;;;84.00;25.63;;;;;;;;;;5070826;28;20041;-76
2022/03/05 06:02:02;;;;;;;65.35;21.20;;;;;;;;;;5054151;28;20037;-77
2022/03/05 06:04:29;;;;;;;140.00;37.78;;;;;;;;;;5054036;28;20485;-76
2022/03/05 06:06:55;;;;;;;125.05;41.65;;;;;;;;;;5070671;28;20037;-77
2022/03/05 06:09:21;;;;;;;126.40;34.13;;;;;;;;;;5070371;28;20035;-77
2022/03/05 06:11:47;;;;;;;115.68;35.15;;;;;;;;;;5070819;28;20032;-77
2022/03/05 06:14:13;;;;;;;93.65;30.13;;;;;;;;;;5071039;28;20040;-77
2022/03/05 06:16:39;;;;;;;96.78;31.05;;;;;;;;;;5070446;28;20124;-77
2022/03/05 06:19:08;;;;;;;37.83;15.60;;;;;;;;;;5053907;28;20545;-77
2022/03/05 06:21:34;;;;;;;48.67;17.40;;;;;;;;;;5070870;28;20040;-77
2022/03/05 06:24:00;;;;;;;78.38;27.17;;;;;;;;;;5070359;28;20036;-76
2022/03/05 06:26:31;;;;;;;23.65;10.20;;;;;;;;;;5070626;28;20140;-77
2022/03/05 06:28:57;;;;;;;50.80;13.10;;;;;;;;;;5070469;28;20119;-77
2022/03/05 06:31:23;;;;;;;14.25;6.60;;;;;;;;;;5053649;28;20098;-77
2022/03/05 06:33:49;;;;;;;14.38;6.57;;;;;;;;;;5053785;28;20496;-76
2022/03/05 06:36:15;;;;;;;13.43;6.82;;;;;;;;;;5070835;28;20144;-77
2022/03/05 06:38:41;;;;;;;12.57;7.00;;;;;;;;;;5052445;28;20036;-77
2022/03/05 06:41:07;;;;;;;16.33;6.88;;;;;;;;;;5066918;28;20040;-77
2022/03/05 06:43:33;;;;;;;14.57;6.65;;;;;;;;;;5049554;28;20037;-76
2022/03/05 06:45:59;;;;;;;15.65;6.45;;;;;;;;;;5066559;28;20143;-77
2022/03/05 06:48:25;;;;;;;11.05;5.82;;;;;;;;;;5050140;28;20442;-76
2022/03/05 06:50:51;;;;;;;12.68;6.55;;;;;;;;;;5049963;28;20056;-77
2022/03/05 06:53:17;;;;;;;10.88;6.72;;;;;;;;;;5050057;28;20076;-77
2022/03/05 06:55:43;;;;;;;16.50;6.72;;;;;;;;;;5065707;28;20475;-76
2022/03/05 06:58:09;;;;;;;12.27;6.80;;;;;;;;;;5050033;28;20044;-77
2022/03/05 07:00:35;;;;;;;16.13;6.88;;;;;;;;;;5070950;28;20509;-77
2022/03/05 07:03:02;;;;;;;11.52;6.43;;;;;;;;;;5054647;28;20431;-76
2022/03/05 07:05:28;;;;;;;10.55;5.82;;;;;;;;;;5074155;28;20115;-77
2022/03/05 07:07:54;;;;;;;15.25;6.35;;;;;;;;;;5074006;28;20181;-77
2022/03/05 07:10:20;;;;;;;12.63;6.13;;;;;;;;;;5075218;28;20100;-77
2022/03/05 07:12:46;;;;;;;16.10;6.20;;;;;;;;;;5075372;28;20060;-77
2022/03/05 07:15:12;;;;;;;14.50;6.80;;;;;;;;;;5075023;28;20044;-77
2022/03/05 07:17:38;;;;;;;12.52;6.05;;;;;;;;;;5058392;28;20032;-77
2022/03/05 07:20:05;;;;;;;11.63;6.05;;;;;;;;;;5057816;28;20485;-76
2022/03/05 07:22:31;;;;;;;15.25;6.63;;;;;;;;;;5073975;28;20037;-77
2022/03/05 07:24:57;;;;;;;11.35;6.28;;;;;;;;;;5073678;28;20465;-76
2022/03/05 07:27:23;;;;;;;13.90;6.80;;;;;;;;;;5057094;28;20131;-77
2022/03/05 07:29:49;;;;;;;14.00;7.30;;;;;;;;;;5073573;28;20106;-76
2022/03/05 07:32:15;;;;;;;21.38;7.70;;;;;;;;;;5056999;28;20040;-76
2022/03/05 07:34:41;;;;;;;16.13;8.13;;;;;;;;;;5057527;28;20045;-78
2022/03/05 07:37:07;;;;;;;17.88;8.57;;;;;;;;;;5057756;28;20075;-75
2022/03/05 07:39:33;;;;;;;19.27;7.07;;;;;;;;;;5073999;28;20040;-76
2022/03/05 07:41:59;;;;;;;18.33;7.28;;;;;;;;;;5056576;28;20040;-76
2022/03/05 07:44:25;;;;;;;14.32;7.20;;;;;;;;;;5073170;28;20185;-75
2022/03/05 07:46:51;;;;;;;14.70;7.55;;;;;;;;;;5056702;28;20041;-76
2022/03/05 07:49:17;;;;;;;16.85;7.05;;;;;;;;;;5056862;28;20036;-75
2022/03/05 07:51:43;;;;;;;14.82;7.10;;;;;;;;;;5073229;28;20047;-76
2022/03/05 07:54:09;;;;;;;12.20;7.10;;;;;;;;;;5056482;28;20492;-75
2022/03/05 07:56:36;;;;;;;17.85;7.88;;;;;;;;;;5056455;28;20048;-75
2022/03/05 07:59:02;;;;;;;13.73;6.65;;;;;;;;;;5056658;28;20044;-75
2022/03/05 08:01:28;;;;;;;14.73;7.45;;;;;;;;;;5056658;28;20247;-76
2022/03/05 08:03:54;;;;;;;18.30;9.30;;;;;;;;;;5056506;28;20074;-75
2022/03/05 08:06:20;;;;;;;12.68;7.20;;;;;;;;;;5056402;28;20048;-75
2022/03/05 08:08:46;;;;;;;16.00;8.38;;;;;;;;;;5056402;28;20036;-75
2022/03/05 08:11:12;;;;;;;15.02;7.35;;;;;;;;;;5072373;28;20106;-75
2022/03/05 08:13:47;;;;;;;15.95;7.38;;;;;;;;;;5056265;28;20050;-75
2022/03/05 08:16:13;;;;;;;14.88;6.75;;;;;;;;;;5056033;28;20040;-74
2022/03/05 08:18:39;;;;;;;11.77;6.63;;;;;;;;;;5056288;28;20127;-75
2022/03/05 08:21:07;;;;;;;16.67;7.53;;;;;;;;;;5073002;28;20040;-72
2022/03/05 08:23:33;;;;;;;11.98;6.88;;;;;;;;;;5072543;28;20036;-75
2022/03/05 08:25:59;;;;;;;15.45;7.43;;;;;;;;;;5072888;28;20052;-75
2022/03/05 08:28:25;;;;;;;12.13;6.53;;;;;;;;;;5056147;28;20091;-75
2022/03/05 08:30:51;;;;;;;12.23;6.25;;;;;;;;;;5072584;28;20052;-75
2022/03/05 08:33:17;;;;;;;13.27;6.95;;;;;;;;;;5055845;28;20664;-74
2022/03/05 08:35:43;;;;;;;15.07;7.43;;;;;;;;;;5055560;28;20087;-75
2022/03/05 08:38:09;;;;;;;11.98;6.75;;;;;;;;;;5056048;28;20044;-76
2022/03/05 08:40:35;;;;;;;13.75;7.20;;;;;;;;;;5055813;28;20123;-76
2022/03/05 08:43:01;;;;;;;13.93;7.13;;;;;;;;;;5055502;28;20045;-76
2022/03/05 08:45:27;;;;;;;11.18;6.75;;;;;;;;;;5072215;28;20089;-75
2022/03/05 08:47:53;;;;;;;12.23;6.80;;;;;;;;;;5055839;28;20048;-76
2022/03/05 08:50:19;;;;;;;11.68;6.82;;;;;;;;;;5055876;28;20037;-75
2022/03/05 08:52:45;;;;;;;11.70;6.95;;;;;;;;;;5055653;28;20044;-76
2022/03/05 08:55:12;;;;;;;12.82;7.03;;;;;;;;;;5072215;28;20055;-76
2022/03/05 08:57:39;;;;;;;12.40;7.20;;;;;;;;;;5071949;28;20039;-76
2022/03/05 09:00:07;;;;;;;16.17;7.78;;;;;;;;;;5055287;28;20510;-76
2022/03/05 09:02:33;;;;;;;15.30;6.90;;;;;;;;;;5072203;28;20413;-76
2022/03/05 09:04:59;;;;;;;12.98;7.30;;;;;;;;;;5055250;28;20047;-76
2022/03/05 09:07:25;;;;;;;13.88;6.78;;;;;;;;;;5072032;28;20067;-76
2022/03/05 09:09:51;;;;;;;14.35;7.00;;;;;;;;;;5054991;28;20056;-75
2022/03/05 09:12:17;;;;;;;18.30;7.70;;;;;;;;;;5071726;28;20051;-76
2022/03/05 09:14:43;;;;;;;15.32;7.65;;;;;;;;;;5071908;28;20044;-75
2022/03/05 09:17:09;;;;;;;16.40;8.02;;;;;;;;;;5071730;28;20040;-75
2022/03/05 09:19:35;;;;;;;15.40;7.80;;;;;;;;;;5071477;28;20485;-75
2022/03/05 09:22:01;;;;;;;16.35;7.70;;;;;;;;;;5070667;28;20036;-75
2022/03/05 09:24:27;;;;;;;15.15;7.60;;;;;;;;;;5071562;28;20421;-76
2022/03/05 09:26:53;;;;;;;18.20;8.10;;;;;;;;;;5054932;28;20076;-75
2022/03/05 09:29:19;;;;;;;18.67;8.32;;;;;;;;;;5054847;28;20041;-75
2022/03/05 09:31:45;;;;;;;16.10;8.07;;;;;;;;;;5054597;28;20032;-77
2022/03/05 09:34:11;;;;;;;13.82;7.05;;;;;;;;;;5054901;28;20043;-76
2022/03/05 09:36:37;;;;;;;19.50;8.07;;;;;;;;;;5071213;28;20044;-75
2022/03/05 09:39:03;;;;;;;16.75;7.50;;;;;;;;;;5054504;28;20036;-75
2022/03/05 09:41:29;;;;;;;19.45;7.22;;;;;;;;;;5054815;28;20066;-75
2022/03/05 09:43:59;;;;;;;19.27;7.75;;;;;;;;;;5054461;28;20036;-75
2022/03/05 09:46:26;;;;;;;21.33;8.38;;;;;;;;;;5056714;28;20373;-74
2022/03/05 09:48:54;;;;;;;22.42;8.98;;;;;;;;;;5054269;28;20506;-75
2022/03/05 09:51:21;;;;;;;16.80;7.78;;;;;;;;;;5054405;28;20083;-75
2022/03/05 09:53:48;;;;;;;22.13;8.80;;;;;;;;;;5054645;28;20052;-74
2022/03/05 09:56:14;;;;;;;19.85;8.05;;;;;;;;;;5070938;28;20399;-74
2022/03/05 09:58:39;;;;;;;21.08;8.80;;;;;;;;;;5070882;28;20071;-75
2022/03/05 10:01:05;;;;;;;17.95;7.78;;;;;;;;;;5070772;28;20036;-74
2022/03/05 10:03:42;;;;;;;23.83;8.60;;;;;;;;;;5054598;28;20123;-75
2022/03/05 10:06:18;;;;;;;18.83;7.53;;;;;;;;;;5070840;28;20044;-75
2022/03/05 10:08:45;;;;;;;20.73;9.25;;;;;;;;;;5054143;28;20507;-75
2022/03/05 10:11:12;;;;;;;21.40;8.63;;;;;;;;;;5053855;28;20048;-75
2022/03/05 10:13:38;;;;;;;21.27;9.18;;;;;;;;;;5070646;28;20170;-75
2022/03/05 10:16:06;;;;;;;25.33;9.30;;;;;;;;;;5053850;28;20056;-76
2022/03/05 10:18:41;;;;;;;22.80;8.88;;;;;;;;;;5070512;28;20037;-75
2022/03/05 10:21:10;;;;;;;24.33;9.32;;;;;;;;;;5070675;28;20033;-75
2022/03/05 10:23:38;;;;;;;19.58;8.98;;;;;;;;;;5054258;28;20044;-75
2022/03/05 10:26:05;;;;;;;21.05;9.23;;;;;;;;;;5070643;28;20036;-73
2022/03/05 10:28:31;;;;;;;18.92;8.73;;;;;;;;;;5054069;28;20052;-75
2022/03/05 10:31:01;;;;;;;20.10;9.38;;;;;;;;;;5070339;28;20073;-75
2022/03/05 10:33:28;;;;;;;25.70;9.67;;;;;;;;;;5070606;28;20090;-74
2022/03/05 10:35:54;;;;;;;24.67;9.02;;;;;;;;;;5070630;28;20049;-74
2022/03/05 10:38:21;;;;;;;22.23;8.75;;;;;;;;;;5070685;28;20051;-75
2022/03/05 10:40:54;;;;;;;18.58;8.90;;;;;;;;;;5070265;28;20036;-73
2022/03/05 10:43:21;;;;;;;21.83;9.13;;;;;;;;;;5053598;28;20087;-74
2022/03/05 10:45:51;;;;;;;26.02;10.43;;;;;;;;;;5053572;28;20036;-74
2022/03/05 10:48:22;;;;;;;21.23;8.50;;;;;;;;;;5070357;28;20082;-74
2022/03/05 10:50:48;;;;;;;21.92;9.32;;;;;;;;;;5070148;28;20047;-74
2022/03/05 10:53:14;;;;;;;19.88;8.35;;;;;;;;;;5070315;28;20051;-77
2022/03/05 10:55:40;;;;;;;19.25;8.18;;;;;;;;;;5070422;28;20045;-74
2022/03/05 10:58:14;;;;;;;24.40;10.50;;;;;;;;;;5070623;28;20048;-75
2022/03/05 11:00:43;;;;;;;22.80;8.68;;;;;;;;;;5070491;28;20036;-75
2022/03/05 11:03:09;;;;;;;23.50;9.85;;;;;;;;;;5053650;28;20040;-75
2022/03/05 11:05:39;;;;;;;21.00;8.82;;;;;;;;;;5053428;28;20041;-76
2022/03/05 11:08:06;;;;;;;22.38;9.45;;;;;;;;;;5070030;28;20097;-75
2022/03/05 11:10:32;;;;;;;23.55;9.48;;;;;;;;;;5069887;28;20052;-74
2022/03/05 11:12:59;;;;;;;31.20;9.65;;;;;;;;;;5069904;28;20397;-75
2022/03/05 11:15:26;;;;;;;20.27;10.15;;;;;;;;;;5070188;28;20521;-75
2022/03/05 11:17:52;;;;;;;22.45;10.10;;;;;;;;;;5070131;28;20087;-75
2022/03/05 11:20:19;;;;;;;23.77;9.07;;;;;;;;;;5053194;28;20033;-74
2022/03/05 11:22:49;;;;;;;24.80;9.82;;;;;;;;;;5069869;28;20039;-76
2022/03/05 11:25:16;;;;;;;22.05;9.80;;;;;;;;;;5053338;28;20389;-75
2022/03/05 11:28:12;;;;;;;23.20;9.82;;;;;;;;;;5053196;28;20123;-75
2022/03/05 11:30:44;;;;;;;25.25;9.77;;;;;;;;;;5041111;28;20059;-75
2022/03/05 11:33:11;;;;;;;27.48;10.57;;;;;;;;;;5053224;28;20472;-75
2022/03/05 11:35:43;;;;;;;24.45;9.32;;;;;;;;;;5053003;28;20442;-76
2022/03/05 11:38:27;;;;;;;18.55;8.23;;;;;;;;;;5053092;28;20044;-75
2022/03/05 11:40:53;;;;;;;21.73;9.20;;;;;;;;;;5069864;28;20464;-76
2022/03/05 11:43:20;;;;;;;23.25;9.45;;;;;;;;;;5069644;28;20043;-74
2022/03/05 11:45:51;;;;;;;24.30;9.57;;;;;;;;;;5072336;28;20048;-75
2022/03/05 11:48:20;;;;;;;19.17;8.57;;;;;;;;;;5073345;28;20086;-76
2022/03/05 11:50:49;;;;;;;26.00;9.50;;;;;;;;;;5057042;28;20084;-75
2022/03/05 11:53:15;;;;;;;21.30;9.27;;;;;;;;;;5056705;28;20062;-74
2022/03/05 11:55:42;;;;;;;25.13;9.70;;;;;;;;;;5073054;28;20047;-75
2022/03/05 11:58:09;;;;;;;22.85;10.13;;;;;;;;;;5056499;28;20499;-74
2022/03/05 12:00:36;;;;;;;23.90;10.10;;;;;;;;;;5073018;28;20378;-75
2022/03/05 12:03:03;;;;;;;22.60;9.50;;;;;;;;;;5056642;28;20123;-76
2022/03/05 12:05:38;;;;;;;25.25;10.27;;;;;;;;;;5056549;28;20040;-75
2022/03/05 12:08:05;;;;;;;22.85;9.95;;;;;;;;;;5073187;28;20080;-76
2022/03/05 12:10:31;;;;;;;20.27;9.45;;;;;;;;;;5056431;28;20070;-75
2022/03/05 12:12:58;;;;;;;22.17;10.98;;;;;;;;;;5056238;28;20045;-76
2022/03/05 12:15:28;;;;;;;22.75;8.98;;;;;;;;;;5073078;28;20037;-75
2022/03/05 12:17:54;;;;;;;19.52;9.10;;;;;;;;;;5073159;28;20115;-75
2022/03/05 12:20:29;;;;;;;27.05;9.68;;;;;;;;;;5072819;28;20044;-76
2022/03/05 12:23:04;;;;;;;23.52;9.88;;;;;;;;;;5055920;28;20047;-76
2022/03/05 12:25:31;;;;;;;21.02;10.60;;;;;;;;;;5056089;28;20460;-75
2022/03/05 12:27:57;;;;;;;24.63;9.55;;;;;;;;;;5055867;28;20446;-75
2022/03/05 12:30:25;;;;;;;25.80;10.40;;;;;;;;;;5072626;28;20051;-75
2022/03/05 12:32:52;;;;;;;24.83;10.73;;;;;;;;;;5072773;28;20610;-76
2022/03/05 12:35:19;;;;;;;25.20;10.07;;;;;;;;;;5056156;28;20503;-75
2022/03/05 12:37:45;;;;;;;22.90;9.75;;;;;;;;;;5056274;28;20048;-75
2022/03/05 12:40:12;;;;;;;22.90;9.57;;;;;;;;;;5072437;28;20036;-76
2022/03/05 12:42:40;;;;;;;23.27;9.95;;;;;;;;;;5072783;28;20043;-75
2022/03/05 12:45:06;;;;;;;28.27;11.73;;;;;;;;;;5055892;28;20041;-75
2022/03/05 12:47:33;;;;;;;27.17;13.48;;;;;;;;;;5055510;28;20496;-76
2022/03/05 12:50:17;;;;;;;45.50;17.05;;;;;;;;;;5055562;28;20047;-75
2022/03/05 12:52:53;;;;;;;25.52;9.57;;;;;;;;;;5072213;28;20048;-77
2022/03/05 12:55:19;;;;;;;20.67;9.52;;;;;;;;;;5055353;28;20040;-76
2022/03/05 12:57:45;;;;;;;21.27;10.50;;;;;;;;;;5072015;28;20040;-77
2022/03/05 13:00:12;;;;;;;27.63;10.20;;;;;;;;;;5055423;28;20040;-76
2022/03/05 13:02:38;;;;;;;25.90;11.00;;;;;;;;;;5071892;28;20036;-76
2022/03/05 13:05:17;;;;;;;23.38;10.10;;;;;;;;;;5072216;28;20055;-76
2022/03/05 13:07:44;;;;;;;21.95;9.45;;;;;;;;;;5055497;28;20527;-75
2022/03/05 13:10:10;;;;;;;22.92;9.68;;;;;;;;;;5071766;28;20056;-76
2022/03/05 13:12:39;;;;;;;23.73;10.27;;;;;;;;;;5055077;28;20036;-76
2022/03/05 13:15:05;;;;;;;22.60;10.95;;;;;;;;;;5054998;28;20044;-76
2022/03/05 13:17:31;;;;;;;25.63;10.20;;;;;;;;;;5055329;28;20086;-77
2022/03/05 13:20:01;;;;;;;23.67;10.68;;;;;;;;;;5071605;28;20040;-74
2022/03/05 13:22:27;;;;;;;27.73;11.60;;;;;;;;;;5055209;28;20500;-77
2022/03/05 13:24:53;;;;;;;26.33;10.52;;;;;;;;;;5054851;28;20068;-77
2022/03/05 13:27:24;;;;;;;22.38;10.70;;;;;;;;;;5072023;28;20518;-76
2022/03/05 13:29:51;;;;;;;21.92;10.18;;;;;;;;;;5054773;28;20052;-76
2022/03/05 13:32:17;;;;;;;24.70;10.27;;;;;;;;;;5071417;28;20037;-76
2022/03/05 13:34:43;;;;;;;26.13;9.63;;;;;;;;;;5054519;28;20174;-76
2022/03/05 13:37:10;;;;;;;24.10;10.15;;;;;;;;;;5071290;28;20044;-76
2022/03/05 13:39:37;;;;;;;22.77;10.07;;;;;;;;;;5071513;28;20499;-77
2022/03/05 13:42:10;;;;;;;25.15;10.10;;;;;;;;;;5054361;28;20044;-75
2022/03/05 13:44:37;;;;;;;24.80;10.27;;;;;;;;;;5071254;28;20547;-75
2022/03/05 13:47:06;;;;;;;27.10;10.30;;;;;;;;;;5071044;28;20040;-76
2022/03/05 13:49:32;;;;;;;28.55;11.40;;;;;;;;;;5054872;28;20076;-77
2022/03/05 13:52:03;;;;;;;21.60;9.38;;;;;;;;;;5054254;28;20502;-75
2022/03/05 13:54:44;;;;;;;23.52;10.90;;;;;;;;;;5054224;28;20476;-76
2022/03/05 13:57:12;;;;;;;22.52;10.05;;;;;;;;;;5071176;28;20040;-75
2022/03/05 13:59:48;;;;;;;23.45;10.35;;;;;;;;;;5070888;28;20043;-75
2022/03/05 14:02:15;;;;;;;19.83;9.02;;;;;;;;;;5071146;28;20041;-76
2022/03/05 14:05:00;;;;;;;21.98;11.23;;;;;;;;;;5071079;28;20037;-76
2022/03/05 14:07:26;;;;;;;22.73;9.70;;;;;;;;;;5053954;28;20048;-75
2022/03/05 14:09:52;;;;;;;28.42;10.88;;;;;;;;;;5053836;28;20119;-77
2022/03/05 14:12:19;;;;;;;22.13;10.77;;;;;;;;;;5054151;28;20471;-76
2022/03/05 14:14:50;;;;;;;22.33;10.98;;;;;;;;;;5054102;28;20072;-76
2022/03/05 14:17:16;;;;;;;;;;;;;;;;;;5054368;28;20036;-75
2022/03/05 14:19:42;;;;;;;28.65;11.23;;;;;;;;;;5053979;28;19916;-75
2022/03/05 14:22:10;;;;;;;24.20;11.20;;;;;;;;;;5054050;28;20032;-76
2022/03/05 14:24:37;;;;;;;16.90;8.13;;;;;;;;;;5070473;28;20040;-76
2022/03/05 14:27:13;;;;;;;22.15;10.27;;;;;;;;;;5054088;28;20130;-77
2022/03/05 14:29:40;;;;;;;20.42;9.13;;;;;;;;;;5053662;28;20044;-76